createdAt,value
2022-08-05T00:00:17.866Z,17.77
2022-08-05T00:02:50.685Z,17.90
2022-08-05T00:06:02.911Z,17.80
2022-08-05T00:08:30.861Z,17.98
2022-08-05T00:11:00.864Z,16.65
2022-08-05T00:13:39.112Z,17.50
2022-08-05T00:16:14.256Z,17.77
2022-08-05T00:18:46.034Z,17.88
2022-08-05T00:21:16.901Z,17.30
2022-08-05T00:24:05.029Z,18.40
2022-08-05T00:26:33.276Z,17.92
2022-08-05T00:29:00.334Z,17.83
2022-08-05T00:31:52.923Z,18.52
2022-08-05T00:34:56.059Z,18.02
2022-08-05T00:37:12.653Z,20.23
2022-08-05T00:39:57.516Z,17.60
2022-08-05T00:42:37.930Z,18.00
2022-08-05T00:45:08.706Z,16.42
2022-08-05T00:47:56.302Z,18.08
2022-08-05T00:50:25.797Z,17.67
2022-08-05T00:52:55.006Z,17.88
2022-08-05T00:55:42.210Z,17.10
2022-08-05T00:58:12.709Z,16.73
2022-08-05T01:00:42.137Z,17.63
2022-08-05T01:03:12.671Z,18.40
2022-08-05T01:05:51.503Z,18.73
2022-08-05T01:08:41.465Z,17.80
2022-08-05T01:11:22.237Z,17.52
2022-08-05T01:13:58.809Z,18.48
2022-08-05T01:16:33.870Z,18.80
2022-08-05T01:19:20.168Z,18.10
2022-08-05T01:22:10.835Z,17.58
2022-08-05T01:25:24.431Z,17.15
2022-08-05T01:28:33.342Z,16.65
2022-08-05T01:31:09.230Z,16.13
2022-08-05T01:33:49.124Z,17.85
2022-08-05T01:36:20.965Z,18.33
2022-08-05T01:38:49.884Z,19.02
2022-08-05T01:41:21.983Z,18.83
2022-08-05T01:43:51.252Z,20.35
2022-08-05T01:46:41.387Z,18.33
2022-08-05T01:49:23.106Z,19.35
2022-08-05T01:51:56.008Z,20.70
2022-08-05T01:54:27.183Z,19.48
2022-08-05T01:58:13.190Z,18.73
2022-08-05T01:59:48.476Z,19.88
2022-08-05T02:02:17.963Z,19.42
2022-08-05T02:04:49.523Z,19.30
2022-08-05T02:07:22.025Z,20.05
2022-08-05T02:09:51.098Z,18.15
2022-08-05T02:12:25.331Z,18.38
2022-08-05T02:15:12.708Z,18.55
2022-08-05T02:18:32.992Z,19.45
2022-08-05T02:21:17.284Z,18.77
2022-08-05T02:23:49.076Z,19.33
2022-08-05T02:26:22.322Z,19.05
2022-08-05T02:28:50.504Z,19.63
2022-08-05T02:31:23.719Z,18.13
2022-08-05T02:33:57.199Z,19.00
2022-08-05T02:36:27.670Z,19.67
2022-08-05T02:39:00.171Z,18.58
2022-08-05T02:41:28.965Z,19.52
2022-08-05T02:44:13.285Z,18.45
2022-08-05T02:46:53.505Z,18.85
2022-08-05T02:49:35.855Z,19.13
2022-08-05T02:52:09.203Z,18.80
2022-08-05T02:54:41.420Z,20.25
2022-08-05T02:58:10.885Z,19.15
2022-08-05T03:00:00.252Z,18.65
2022-08-05T03:02:37.110Z,18.02
2022-08-05T03:05:07.666Z,19.98
2022-08-05T03:08:01.041Z,18.20
2022-08-05T03:10:25.167Z,18.95
2022-08-05T03:12:54.221Z,19.67
2022-08-05T03:15:23.501Z,19.35
2022-08-05T03:17:57.635Z,19.38
2022-08-05T03:20:25.304Z,18.83
2022-08-05T03:22:53.292Z,18.98
2022-08-05T03:25:33.054Z,19.00
2022-08-05T03:28:13.919Z,19.73
2022-08-05T03:30:42.629Z,20.02
2022-08-05T03:33:09.947Z,19.58
2022-08-05T03:35:41.283Z,21.25
2022-08-05T03:38:11.776Z,22.33
2022-08-05T03:40:48.528Z,21.23
2022-08-05T03:44:09.179Z,20.60
2022-08-05T03:46:05.122Z,22.88
2022-08-05T03:48:36.654Z,22.35
2022-08-05T03:52:38.009Z,21.70
2022-08-05T03:55:54.743Z,22.58
2022-08-05T03:57:18.961Z,22.25
2022-08-05T03:59:54.754Z,22.33
2022-08-05T04:02:37.604Z,21.13
2022-08-05T04:05:09.687Z,21.40
2022-08-05T04:07:58.080Z,21.50
2022-08-05T04:10:37.140Z,21.73
2022-08-05T04:13:07.785Z,21.58
2022-08-05T04:15:36.561Z,20.52
2022-08-05T04:18:07.168Z,21.40
2022-08-05T04:20:36.730Z,20.65
2022-08-05T04:23:04.010Z,20.98
2022-08-05T04:25:57.829Z,19.52
2022-08-05T04:28:19.988Z,19.67
2022-08-05T04:30:58.250Z,19.60
2022-08-05T04:36:46.122Z,17.95
2022-08-05T04:39:02.717Z,18.98
2022-08-05T04:41:36.575Z,16.73
2022-08-05T04:44:09.398Z,15.20
2022-08-05T04:46:38.498Z,14.75
2022-08-05T04:49:12.299Z,14.85
2022-08-05T04:51:44.252Z,14.23
2022-08-05T04:54:12.063Z,13.50
2022-08-05T04:56:39.613Z,15.07
2022-08-05T04:59:17.464Z,13.25
2022-08-05T05:02:07.607Z,12.98
2022-08-05T05:07:12.046Z,14.65
2022-08-05T05:09:43.011Z,14.82
2022-08-05T05:12:11.807Z,14.43
2022-08-05T05:14:49.461Z,15.43
2022-08-05T05:17:23.454Z,12.82
2022-08-05T05:19:56.551Z,14.10
2022-08-05T05:22:26.493Z,14.38
2022-08-05T05:25:00.319Z,13.18
2022-08-05T05:27:48.573Z,14.10
2022-08-05T05:30:31.046Z,13.93
2022-08-05T05:33:09.184Z,14.38
2022-08-05T05:35:45.627Z,14.20
2022-08-05T05:38:14.251Z,13.73
2022-08-05T05:40:49.678Z,14.35
2022-08-05T05:43:28.209Z,12.43
2022-08-05T05:46:13.694Z,11.77
2022-08-05T05:48:47.768Z,13.43
2022-08-05T05:51:23.154Z,15.90
2022-08-05T05:53:58.234Z,13.70
2022-08-05T05:56:32.368Z,12.85
2022-08-05T05:59:06.799Z,12.05
2022-08-05T06:01:38.061Z,12.73
2022-08-05T06:04:08.316Z,12.77
2022-08-05T06:06:47.744Z,11.48
2022-08-05T06:09:25.385Z,12.50
2022-08-05T06:12:02.042Z,11.77
2022-08-05T06:14:31.347Z,11.15
2022-08-05T06:16:59.527Z,10.75
2022-08-05T06:19:35.297Z,10.60
2022-08-05T06:22:04.718Z,13.38
2022-08-05T06:24:35.510Z,12.18
2022-08-05T06:27:04.126Z,11.48
2022-08-05T06:29:46.346Z,10.32
2022-08-05T06:32:24.803Z,10.43
2022-08-05T06:34:57.888Z,9.80
2022-08-05T06:37:39.412Z,10.80
2022-08-05T06:40:18.178Z,9.60
2022-08-05T06:42:52.434Z,8.40
2022-08-05T06:45:44.414Z,9.00
2022-08-05T06:50:57.476Z,9.15
2022-08-05T06:53:28.481Z,8.73
2022-08-05T06:56:00.122Z,8.65
2022-08-05T06:58:35.471Z,11.23
2022-08-05T07:01:07.148Z,9.20
2022-08-05T07:03:35.094Z,8.30
2022-08-05T07:06:06.223Z,8.38
2022-08-05T07:08:47.959Z,7.90
2022-08-05T07:11:21.894Z,6.97
2022-08-05T07:14:20.307Z,8.70
2022-08-05T07:18:00.373Z,7.75
2022-08-05T07:20:23.070Z,8.38
2022-08-05T07:22:29.172Z,8.00
2022-08-05T07:25:23.450Z,8.43
2022-08-05T07:28:08.268Z,8.27
2022-08-05T07:30:39.850Z,7.60
2022-08-05T07:33:15.667Z,8.15
2022-08-05T07:36:03.459Z,8.40
2022-08-05T07:38:35.672Z,9.75
2022-08-05T07:42:13.795Z,8.48
2022-08-05T07:44:14.106Z,7.57
2022-08-05T07:46:48.505Z,6.85
2022-08-05T07:49:18.305Z,8.27
2022-08-05T07:51:52.944Z,7.03
2022-08-05T07:54:26.420Z,7.50
2022-08-05T07:57:14.690Z,7.28
2022-08-05T07:59:41.874Z,6.50
2022-08-05T08:02:16.446Z,7.50
2022-08-05T08:04:49.595Z,7.22
2022-08-05T08:07:23.103Z,7.05
2022-08-05T08:09:53.075Z,6.68
2022-08-05T08:12:35.036Z,6.93
2022-08-05T08:15:15.217Z,6.28
2022-08-05T08:17:52.961Z,6.70
2022-08-05T08:20:45.328Z,7.47
2022-08-05T08:24:01.931Z,6.60
2022-08-05T08:26:02.617Z,6.57
2022-08-05T08:28:36.293Z,7.28
2022-08-05T08:31:14.994Z,8.05
2022-08-05T08:33:45.080Z,7.57
2022-08-05T08:36:38.144Z,7.10
2022-08-05T08:38:59.810Z,6.70
2022-08-05T08:41:52.327Z,6.88
2022-08-05T08:45:23.433Z,5.95
2022-08-05T08:47:47.698Z,6.70
2022-08-05T08:50:22.534Z,5.93
2022-08-05T08:52:53.368Z,6.80
2022-08-05T08:56:03.077Z,6.50
2022-08-05T08:58:12.835Z,6.75
2022-08-05T09:00:42.037Z,5.47
2022-08-05T09:03:11.391Z,6.15
2022-08-05T09:06:08.867Z,6.68
2022-08-05T09:08:26.613Z,6.32
2022-08-05T09:10:54.781Z,6.22
2022-08-05T09:13:23.636Z,6.93
2022-08-05T09:15:51.815Z,6.20
2022-08-05T09:18:19.013Z,6.65
2022-08-05T09:20:47.223Z,7.63
2022-08-05T09:23:18.646Z,7.78
2022-08-05T09:26:02.879Z,8.85
2022-08-05T09:28:34.291Z,8.27
2022-08-05T09:31:18.313Z,7.78
2022-08-05T09:33:58.323Z,7.78
2022-08-05T09:36:55.106Z,7.53
2022-08-05T09:39:41.571Z,6.93
2022-08-05T09:42:24.483Z,7.53
2022-08-05T09:45:03.401Z,9.85
2022-08-05T09:47:55.388Z,8.57
2022-08-05T09:50:44.079Z,7.55
2022-08-05T09:53:23.023Z,8.52
2022-08-05T09:56:04.465Z,8.48
2022-08-05T09:58:32.412Z,8.20
2022-08-05T10:01:13.527Z,8.13
2022-08-05T10:04:00.410Z,7.63
2022-08-05T10:06:28.334Z,8.40
2022-08-05T10:08:56.940Z,8.82
2022-08-05T10:11:31.429Z,8.25
2022-08-05T10:14:24.602Z,8.00
2022-08-05T10:16:58.853Z,8.18
2022-08-05T10:20:03.109Z,8.25
2022-08-05T10:22:15.773Z,8.43
2022-08-05T10:24:57.299Z,9.00
2022-08-05T10:27:26.223Z,8.55
2022-08-05T10:32:48.662Z,8.27
2022-08-05T10:33:01.116Z,8.30
2022-08-05T10:35:33.740Z,7.95
2022-08-05T10:38:08.623Z,8.50
2022-08-05T10:41:05.506Z,7.82
2022-08-05T10:43:52.935Z,8.48
2022-08-05T10:46:54.256Z,9.07
2022-08-05T10:49:27.250Z,7.72
2022-08-05T10:52:05.318Z,7.60
2022-08-05T10:55:03.083Z,7.47
2022-08-05T10:57:34.044Z,10.18
2022-08-05T11:00:20.396Z,8.68
2022-08-05T11:03:23.633Z,8.48
2022-08-05T11:06:15.283Z,7.38
2022-08-05T11:09:13.059Z,6.93
2022-08-05T11:15:01.315Z,6.50
2022-08-05T11:18:00.322Z,7.30
2022-08-05T11:20:33.066Z,7.28
2022-08-05T11:23:05.858Z,6.97
2022-08-05T11:26:09.223Z,7.57
2022-08-05T11:28:55.951Z,8.30
2022-08-05T11:31:58.329Z,6.88
2022-08-05T11:34:51.689Z,7.38
2022-08-05T11:38:37.087Z,7.18
2022-08-05T11:41:35.123Z,6.90
2022-08-05T11:44:05.616Z,7.03
2022-08-05T11:46:58.143Z,7.70
2022-08-05T11:49:33.750Z,6.80
2022-08-05T11:52:11.382Z,6.50
2022-08-05T11:54:41.593Z,7.70
2022-08-05T11:57:24.887Z,7.50
2022-08-05T11:59:53.728Z,7.90
2022-08-05T12:02:36.142Z,6.18
2022-08-05T12:05:07.117Z,6.80
2022-08-05T12:08:07.388Z,7.10
2022-08-05T12:10:43.442Z,6.80
2022-08-05T12:13:28.330Z,7.00
2022-08-05T12:16:14.449Z,5.60
2022-08-05T12:18:49.635Z,5.28
2022-08-05T12:21:30.218Z,5.93
2022-08-05T12:24:09.369Z,6.30
2022-08-05T12:27:09.511Z,5.50
2022-08-05T12:29:39.766Z,5.72
2022-08-05T12:32:09.606Z,5.63
2022-08-05T12:37:17.337Z,6.40
2022-08-05T12:39:53.793Z,6.05
2022-08-05T12:42:21.583Z,6.65
2022-08-05T12:44:52.681Z,5.50
2022-08-05T12:47:30.713Z,6.40
2022-08-05T12:50:04.651Z,6.00
2022-08-05T12:52:39.679Z,5.80
2022-08-05T12:55:25.662Z,5.25
2022-08-05T12:58:52.626Z,5.32
2022-08-05T13:02:01.595Z,6.10
2022-08-05T13:03:38.936Z,6.03
2022-08-05T13:06:12.544Z,5.82
2022-08-05T13:08:40.425Z,5.35
2022-08-05T13:11:08.029Z,6.20
2022-08-05T13:14:05.398Z,5.60
2022-08-05T13:16:27.836Z,5.78
2022-08-05T13:18:58.413Z,5.78
2022-08-05T13:21:28.349Z,5.82
2022-08-05T13:24:08.699Z,5.93
2022-08-05T13:26:36.303Z,5.97
2022-08-05T13:29:05.156Z,5.93
2022-08-05T13:31:34.072Z,5.80
2022-08-05T13:34:25.957Z,6.03
2022-08-05T13:36:54.328Z,5.70
2022-08-05T13:39:24.757Z,5.75
2022-08-05T13:42:14.386Z,5.68
2022-08-05T13:44:45.862Z,5.70
2022-08-05T13:47:35.717Z,5.60
2022-08-05T13:50:06.779Z,6.03
2022-08-05T13:52:38.596Z,5.53
2022-08-05T13:55:09.897Z,5.68
2022-08-05T13:57:51.308Z,5.93
2022-08-05T14:00:27.707Z,6.15
2022-08-05T14:02:57.713Z,6.75
2022-08-05T14:05:29.463Z,6.32
2022-08-05T14:08:21.344Z,5.80
2022-08-05T14:11:03.311Z,6.00
2022-08-05T14:13:44.229Z,5.95
2022-08-05T14:16:17.055Z,5.82
2022-08-05T14:18:48.547Z,5.47
2022-08-05T14:22:07.047Z,5.00
2022-08-05T14:24:04.434Z,6.13
2022-08-05T14:26:38.576Z,5.80
2022-08-05T14:29:16.473Z,5.93
2022-08-05T14:34:35.441Z,5.85
2022-08-05T14:37:05.055Z,5.53
2022-08-05T14:39:49.418Z,5.60
2022-08-05T14:42:29.464Z,5.93
2022-08-05T14:44:56.903Z,5.75
2022-08-05T14:48:05.016Z,6.93
2022-08-05T14:50:18.514Z,6.32
2022-08-05T14:52:58.334Z,7.18
2022-08-05T14:55:38.748Z,6.15
2022-08-05T14:58:11.714Z,6.20
2022-08-05T15:00:58.590Z,7.07
2022-08-05T15:03:33.278Z,7.75
2022-08-05T15:06:07.756Z,7.20
2022-08-05T15:08:58.230Z,9.73
2022-08-05T15:11:50.920Z,7.32
2022-08-05T15:14:34.010Z,6.75
2022-08-05T15:17:00.482Z,6.78
2022-08-05T15:32:42.994Z,6.50
2022-08-05T15:35:12.313Z,6.07
2022-08-05T15:38:34.522Z,6.60
2022-08-05T15:40:59.325Z,6.20
2022-08-05T15:43:20.652Z,7.43
2022-08-05T15:46:00.131Z,6.68
2022-08-05T15:48:30.133Z,6.50
2022-08-05T15:50:58.330Z,6.53
2022-08-05T15:53:37.855Z,6.72
2022-08-05T15:56:17.851Z,6.60
2022-08-05T15:58:45.034Z,6.38
2022-08-05T16:01:16.044Z,6.80
2022-08-05T16:03:48.467Z,6.63
2022-08-05T16:06:19.933Z,6.80
2022-08-05T16:11:20.839Z,7.47
2022-08-05T16:14:05.952Z,7.97
2022-08-05T16:16:35.262Z,7.35
2022-08-05T16:19:02.617Z,8.65
2022-08-05T16:21:58.592Z,7.78
2022-08-05T16:24:41.908Z,9.20
2022-08-05T16:27:05.307Z,7.20
2022-08-05T16:29:37.038Z,7.97
2022-08-05T16:32:09.692Z,7.80
2022-08-05T16:34:41.811Z,8.18
2022-08-05T16:38:01.915Z,8.07
2022-08-05T16:40:05.190Z,7.57
2022-08-05T16:42:34.923Z,10.15
2022-08-05T16:45:06.041Z,9.23
2022-08-05T16:47:55.461Z,10.45
2022-08-05T16:50:25.678Z,8.82
2022-08-05T16:52:52.841Z,8.52
2022-08-05T16:55:24.482Z,9.25
2022-08-05T16:58:00.459Z,10.00
2022-08-05T17:00:34.617Z,8.93
2022-08-05T17:03:03.609Z,10.20
2022-08-05T17:05:32.221Z,10.13
2022-08-05T17:07:59.328Z,17.63
2022-08-05T17:10:30.508Z,9.15
2022-08-05T17:12:58.210Z,9.32
2022-08-05T17:15:29.342Z,10.10
2022-08-05T17:18:14.912Z,8.55
2022-08-05T17:20:42.890Z,9.63
2022-08-05T17:24:03.468Z,8.43
2022-08-05T17:25:58.548Z,9.50
2022-08-05T17:28:26.238Z,8.52
2022-08-05T17:30:56.163Z,8.80
2022-08-05T17:33:23.366Z,9.75
2022-08-05T17:36:07.442Z,8.73
2022-08-05T17:38:37.550Z,9.35
2022-08-05T17:41:22.927Z,9.30
2022-08-05T17:43:55.526Z,9.82
2022-08-05T17:46:23.760Z,9.50
2022-08-05T17:48:50.876Z,9.07
2022-08-05T17:51:21.898Z,8.93
2022-08-05T17:56:22.580Z,9.25
2022-08-05T17:58:51.150Z,9.25
2022-08-05T18:01:18.805Z,8.68
2022-08-05T18:03:59.666Z,9.40
2022-08-05T18:06:32.423Z,8.65
2022-08-05T18:08:59.718Z,8.98
2022-08-05T18:11:33.150Z,9.15
2022-08-05T18:14:03.650Z,10.05
2022-08-05T18:16:32.543Z,11.23
2022-08-05T18:18:59.694Z,11.35
2022-08-05T18:21:28.115Z,10.50
2022-08-05T18:24:14.481Z,10.80
2022-08-05T18:26:41.871Z,11.45
2022-08-05T18:29:11.089Z,11.43
2022-08-05T18:31:38.584Z,10.85
2022-08-05T18:34:12.268Z,10.57
2022-08-05T18:36:41.354Z,10.55
2022-08-05T18:39:42.264Z,11.80
2022-08-05T18:42:06.185Z,10.07
2022-08-05T18:44:51.523Z,10.73
2022-08-05T18:47:22.873Z,10.50
2022-08-05T18:50:12.814Z,11.48
2022-08-05T18:52:50.986Z,10.73
2022-08-05T18:55:20.402Z,11.73
2022-08-05T18:57:52.756Z,11.52
2022-08-05T19:00:26.967Z,10.77
2022-08-05T19:02:56.999Z,12.43
2022-08-05T19:06:11.915Z,13.52
2022-08-05T19:08:13.706Z,11.77
2022-08-05T19:13:12.466Z,11.75
2022-08-05T19:16:00.064Z,10.88
2022-08-05T19:18:30.861Z,11.75
2022-08-05T19:20:59.665Z,11.80
2022-08-05T19:24:07.957Z,12.18
2022-08-05T19:26:16.640Z,10.90
2022-08-05T19:28:44.058Z,11.40
2022-08-05T19:31:13.306Z,10.93
2022-08-05T19:33:48.279Z,11.40
2022-08-05T19:36:25.611Z,12.73
2022-08-05T19:39:01.077Z,12.07
2022-08-05T19:41:58.231Z,12.05
2022-08-05T19:44:21.066Z,11.90
2022-08-05T19:49:17.990Z,12.77
2022-08-05T19:52:04.616Z,12.32
2022-08-05T19:54:35.392Z,12.65
2022-08-05T19:57:06.471Z,12.43
2022-08-05T20:00:00.590Z,11.80
2022-08-05T20:02:27.119Z,12.73
2022-08-05T20:04:58.720Z,12.35
2022-08-05T20:07:47.122Z,13.40
2022-08-05T20:10:19.170Z,12.48
2022-08-05T20:12:49.465Z,13.50
2022-08-05T20:15:48.561Z,12.93
2022-08-05T20:18:09.732Z,13.00
2022-08-05T20:20:55.074Z,13.02
2022-08-05T20:23:23.904Z,12.03
2022-08-05T20:26:09.220Z,12.30
2022-08-05T20:28:45.467Z,13.05
2022-08-05T20:31:12.987Z,13.43
2022-08-05T20:33:42.346Z,13.65
2022-08-05T20:36:11.032Z,12.40
2022-08-05T20:38:40.915Z,12.68
2022-08-05T20:41:24.085Z,13.15
2022-08-05T20:43:58.829Z,12.63
2022-08-05T20:46:30.173Z,12.98
2022-08-05T20:48:57.505Z,12.93
2022-08-05T20:51:24.694Z,12.70
2022-08-05T20:53:56.353Z,12.32
2022-08-05T20:56:28.666Z,12.80
2022-08-05T20:58:59.851Z,12.52
2022-08-05T21:01:37.499Z,12.68
2022-08-05T21:04:07.334Z,13.60
2022-08-05T21:06:38.123Z,12.85
2022-08-05T21:09:15.070Z,11.60
2022-08-05T21:12:10.655Z,12.67
2022-08-05T21:14:31.476Z,12.90
2022-08-05T21:17:06.274Z,11.93
2022-08-05T21:19:47.582Z,12.75
2022-08-05T21:22:23.577Z,12.60
2022-08-05T21:24:59.276Z,13.05
2022-08-05T21:27:27.502Z,13.68
2022-08-05T21:29:58.288Z,14.70
2022-08-05T21:32:31.419Z,11.98
2022-08-05T21:35:18.206Z,13.82
2022-08-05T21:37:47.300Z,12.63
2022-08-05T21:40:22.441Z,13.73
2022-08-05T21:42:52.670Z,12.27
2022-08-05T21:45:24.304Z,12.98
2022-08-05T21:47:56.340Z,12.98
2022-08-05T21:50:26.400Z,12.30
2022-08-05T21:52:53.934Z,12.00
2022-08-05T21:56:01.110Z,12.57
2022-08-05T21:58:13.338Z,11.50
2022-08-05T22:00:40.737Z,12.23
2022-08-05T22:03:17.998Z,11.82
2022-08-05T22:05:48.637Z,11.50
2022-08-05T22:08:22.348Z,11.05
2022-08-05T22:10:51.808Z,11.00
2022-08-05T22:14:34.265Z,10.95
2022-08-05T22:16:26.051Z,11.68
2022-08-05T22:18:58.786Z,11.70
2022-08-05T22:21:26.194Z,11.50
2022-08-05T22:24:13.445Z,11.13
2022-08-05T22:27:17.718Z,12.00
2022-08-05T22:29:44.872Z,12.10
2022-08-05T22:32:17.568Z,12.18
2022-08-05T22:34:50.225Z,11.65
2022-08-05T22:37:17.321Z,12.20
2022-08-05T22:39:45.844Z,12.27
2022-08-05T22:42:21.510Z,12.20
2022-08-05T22:44:56.426Z,11.93
2022-08-05T22:47:29.441Z,11.73
2022-08-05T22:50:20.748Z,11.52
2022-08-05T22:52:49.804Z,11.90
2022-08-05T22:57:50.498Z,11.95
2022-08-05T23:00:20.707Z,12.13
2022-08-05T23:02:49.980Z,11.65
2022-08-05T23:05:18.355Z,12.80
2022-08-05T23:07:49.688Z,12.00
2022-08-05T23:10:23.919Z,12.95
2022-08-05T23:12:54.210Z,13.45
2022-08-05T23:15:29.943Z,11.77
2022-08-05T23:18:03.691Z,12.82
2022-08-05T23:20:38.543Z,12.20
2022-08-05T23:23:08.211Z,11.52
2022-08-05T23:28:28.641Z,12.45
2022-08-05T23:31:07.066Z,12.13
2022-08-05T23:34:04.606Z,12.82
2022-08-05T23:36:38.533Z,15.38
2022-08-05T23:39:07.811Z,12.23
2022-08-05T23:41:40.931Z,12.80
2022-08-05T23:44:09.019Z,12.82
2022-08-05T23:46:37.491Z,12.25
2022-08-05T23:49:16.831Z,12.70
2022-08-05T23:52:03.346Z,12.55
2022-08-05T23:54:36.542Z,13.10
2022-08-05T23:57:07.434Z,12.32
